Ursa Minor — ICGH — position and weather

sailwx.info

Track history (hours):
 
Tides and Currents Weather Stations Pressure Air Temp Water Temp Dewpoint Dewpoint Depression Visibility Wind Speed Wind Dir Waves Ship Positions

Ursa Minor

Last reported at 2017-Sep-22 02:00 UTC. Time now 2017-Sep-22 03:01 UTC.
Position N 44°02' E 009°21'.

Length 205 m; draft 8.3 m.

Type: Ship (hazmat cat D). MMSI: 247082300.

Date/timePositionNaut miles runAvg speedWind from/ knotsBaromVisibWave heightAir tempDewpointWater temp
2017-Sep-22 02:00N 44°02' E 009°21'611.4
2017-Sep-22 01:30N 44°07' E 009°15'611.3
2017-Sep-22 00:59N 44°11' E 009°10'610.8
2017-Sep-22 00:26N 44°15' E 009°03'510.9
2017-Sep-21 23:59N 44°18' E 008°59'611.4
2017-Sep-21 23:30N 44°23' E 008°54'2 4.2
2017-Sep-21 22:59N 44°24' E 008°52'0 0.0
2017-Sep-21 22:29N 44°24' E 008°52'0 0.0
2017-Sep-21 21:59N 44°24' E 008°52'0 0.0
2017-Sep-21 21:29N 44°24' E 008°52'0 0.0
2017-Sep-21 20:59N 44°24' E 008°52'0 0.0
2017-Sep-21 20:29N 44°24' E 008°52'0 0.0
2017-Sep-21 19:59N 44°24' E 008°52'0 0.0
2017-Sep-21 19:29N 44°24' E 008°52'0 0.0
2017-Sep-21 18:59N 44°24' E 008°52'0 0.0
2017-Sep-21 18:29N 44°24' E 008°52'0 0.0
2017-Sep-21 17:59N 44°24' E 008°52'0 0.0
2017-Sep-21 17:26N 44°24' E 008°52'0 0.0
2017-Sep-21 16:56N 44°24' E 008°52'0 0.0
2017-Sep-21 16:26N 44°24' E 008°52'0 0.0
2017-Sep-21 15:56N 44°24' E 008°52'0 0.0
2017-Sep-21 15:26N 44°24' E 008°52'0 0.0
2017-Sep-21 14:56N 44°24' E 008°52'0 0.0
2017-Sep-21 14:26N 44°24' E 008°52'0 0.4
2017-Sep-21 13:58N 44°24' E 008°52'0 0.0
2017-Sep-21 13:30N 44°24' E 008°52'1 2.0
2017-Sep-21 13:00N 44°24' E 008°53'3 5.9
2017-Sep-21 12:30N 44°22' E 008°57'4 8.3
2017-Sep-21 12:00N 44°19' E 009°00'612.3
2017-Sep-21 11:30N 44°14' E 009°06'612.2
2017-Sep-21 11:00N 44°10' E 009°11'612.0
2017-Sep-21 10:30N 44°05' E 009°17'612.0
2017-Sep-21 10:00N 44°01' E 009°23'612.1
2017-Sep-21 09:30N 43°56' E 009°28'612.0
2017-Sep-21 09:00N 43°52' E 009°34'612.1
2017-Sep-21 08:30N 43°47' E 009°40'611.8
2017-Sep-21 08:00N 43°43' E 009°45'611.8
2017-Sep-21 07:30N 43°38' E 009°50'611.9
2017-Sep-21 07:00N 43°34' E 009°55'611.7
2017-Sep-21 06:29N 43°29' E 010°01'611.6
2017-Sep-21 06:00N 43°25' E 010°05'611.6
2017-Sep-21 05:30N 43°19' E 010°09'611.6
2017-Sep-21 05:00N 43°14' E 010°13'611.8
2017-Sep-21 04:30N 43°09' E 010°17'35710.7
2017-Sep-19 19:10N 38°39' E 015°24'211.4
2017-Sep-19 19:00N 38°38' E 015°26'711.2
2017-Sep-19 18:25N 38°32' E 015°30'511.3
2017-Sep-19 17:56N 38°28' E 015°34'511.1
2017-Sep-19 17:31N 38°24' E 015°38'511.0
2017-Sep-19 17:01N 38°19' E 015°42'4 8.3
2017-Sep-19 16:30N 38°15' E 015°40'511.0
2017-Sep-19 16:01N 38°10' E 015°37'510.6
2017-Sep-19 15:31N 38°05' E 015°36'510.6
2017-Sep-19 15:00N 37°60' E 015°37'611.3
2017-Sep-19 14:30N 37°55' E 015°41'611.9
2017-Sep-19 14:00N 37°53' E 015°48'612.4
2017-Sep-19 13:29N 37°53' E 015°56'6611.1
2017-Sep-19 07:34N 38°38' E 016°57'5910.9
2017-Sep-19 02:06N 39°36' E 017°14'211.6
2017-Sep-19 01:56N 39°38' E 017°14'611.4
2017-Sep-19 01:25N 39°44' E 017°13'711.2
2017-Sep-19 00:47N 39°51' E 017°12'1111.0
2017-Sep-18 23:46N 40°02' E 017°09'311.0
2017-Sep-18 23:30N 40°05' E 017°09'611.4
2017-Sep-18 23:00N 40°10' E 017°08'611.5
2017-Sep-18 22:31N 40°16' E 017°07'611.4
2017-Sep-18 22:01N 40°22' E 017°06'611.4
2017-Sep-18 21:30N 40°27' E 017°05'4 7.7
2017-Sep-18 21:01N 40°30' E 017°09'0 0.2
2017-Sep-18 20:27N 40°30' E 017°09'0 0.0
2017-Sep-18 19:57N 40°30' E 017°09'0 0.0
2017-Sep-18 19:31N 40°30' E 017°09'0 0.0
2017-Sep-18 19:01N 40°30' E 017°09'0 0.0
2017-Sep-18 18:30N 40°30' E 017°09'0 0.0
2017-Sep-18 18:00N 40°30' E 017°09'0 0.0
2017-Sep-18 17:30N 40°30' E 017°09'0 0.0
2017-Sep-18 17:00N 40°30' E 017°09'0 0.0
2017-Sep-18 16:30N 40°30' E 017°09'0 0.0
2017-Sep-18 16:00N 40°30' E 017°09'0 0.0
2017-Sep-18 15:30N 40°30' E 017°09'0 0.0
2017-Sep-18 15:00N 40°30' E 017°09'0 0.0
2017-Sep-18 14:30N 40°30' E 017°09'0 0.0
2017-Sep-18 14:00N 40°30' E 017°09'0 0.0
2017-Sep-18 13:30N 40°30' E 017°09'0 0.3
2017-Sep-18 13:00N 40°30' E 017°09'0 0.5
2017-Sep-18 12:28N 40°30' E 017°10'0 0.1
2017-Sep-18 12:00N 40°30' E 017°10'1 2.8
2017-Sep-18 11:30N 40°30' E 017°08'4 8.9
2017-Sep-18 11:01N 40°25' E 017°09'2 3.1
2017-Sep-18 10:30N 40°24' E 017°08'611.7
2017-Sep-18 10:00N 40°18' E 017°08'611.7
2017-Sep-18 09:31N 40°12' E 017°09'611.8
2017-Sep-18 09:00N 40°06' E 017°09'612.4
2017-Sep-18 08:30N 40°00' E 017°10'612.1
2017-Sep-18 08:00N 39°54' E 017°11'612.0
2017-Sep-18 07:29N 39°48' E 017°11'611.9
2017-Sep-18 07:00N 39°42' E 017°12'611.8
2017-Sep-18 06:29N 39°36' E 017°13'12110.1
2017-Sep-17 18:34N 37°53' E 015°52'411.6
2017-Sep-17 18:13N 37°53' E 015°47'312.0
2017-Sep-17 18:00N 37°54' E 015°44'612.2
2017-Sep-17 17:29N 37°58' E 015°38'611.8
2017-Sep-17 17:00N 38°04' E 015°36'611.5
2017-Sep-17 16:30N 38°09' E 015°36'510.5
2017-Sep-17 16:00N 38°15' E 015°37'5 9.8
2017-Sep-17 15:30N 38°18' E 015°41'611.5
2017-Sep-17 15:00N 38°23' E 015°37'612.1
2017-Sep-17 14:30N 38°28' E 015°33'612.1
2017-Sep-17 14:00N 38°33' E 015°29'612.3
2017-Sep-17 13:30N 38°39' E 015°24'712.7
2017-Sep-17 12:59N 38°44' E 015°20'612.5
2017-Sep-17 12:30N 38°49' E 015°16'1012.1
2017-Sep-17 11:41N 38°58' E 015°09'2312.3
2017-Sep-17 09:47N 39°18' E 014°55'512.0
2017-Sep-17 09:22N 39°23' E 014°52'11211.6
2017-Sep-16 23:47N 40°53' E 013°26'20911.3
2017-Sep-16 05:22N 43°20' E 010°08'411.3
2017-Sep-16 05:00N 43°24' E 010°05'611.7
2017-Sep-16 04:30N 43°29' E 010°01'611.8
2017-Sep-16 04:00N 43°34' E 009°56'611.8
2017-Sep-16 03:30N 43°38' E 009°51'611.8
2017-Sep-16 03:00N 43°43' E 009°46'611.8
2017-Sep-16 02:30N 43°48' E 009°41'611.7
2017-Sep-16 02:00N 43°52' E 009°35'611.7
2017-Sep-16 01:30N 43°56' E 009°30'611.3
2017-Sep-16 01:00N 44°00' E 009°24'611.3
2017-Sep-16 00:30N 44°04' E 009°19'611.2
2017-Sep-16 00:00N 44°08' E 009°13'611.2
2017-Sep-15 23:30N 44°12' E 009°08'611.2
2017-Sep-15 22:59N 44°17' E 009°02'511.2
2017-Sep-15 22:30N 44°21' E 008°57'5 9.9
2017-Sep-15 22:00N 44°24' E 008°52'0 0.2
2017-Sep-15 21:28N 44°24' E 008°52'0 0.0
2017-Sep-15 20:58N 44°24' E 008°52'0 0.0
2017-Sep-15 20:28N 44°24' E 008°52'0 0.0
2017-Sep-15 19:58N 44°24' E 008°52'0 0.0
2017-Sep-15 19:28N 44°24' E 008°52'0 0.0
2017-Sep-15 18:58N 44°24' E 008°52'0 0.0
2017-Sep-15 18:28N 44°24' E 008°52'0 0.0
2017-Sep-15 17:58N 44°24' E 008°52'0 0.0
2017-Sep-15 17:28N 44°24' E 008°52'0 0.0
2017-Sep-15 16:58N 44°24' E 008°52'0 0.0
2017-Sep-15 16:25N 44°24' E 008°52'0 0.0
2017-Sep-15 15:55N 44°24' E 008°52'0 0.0
2017-Sep-15 15:22N 44°24' E 008°52'0 0.0
2017-Sep-15 14:55N 44°24' E 008°52'0 0.0
2017-Sep-15 14:25N 44°24' E 008°52'0 0.0
2017-Sep-15 13:55N 44°24' E 008°52'0 0.0
2017-Sep-15 13:25N 44°24' E 008°52'0 0.0
2017-Sep-15 12:55N 44°24' E 008°52'0 0.0
2017-Sep-15 12:25N 44°24' E 008°52'0 0.0
2017-Sep-15 11:55N 44°24' E 008°52'0 0.0
2017-Sep-15 11:25N 44°24' E 008°52'0 0.0
2017-Sep-15 10:55N 44°24' E 008°52'0 0.0
2017-Sep-15 10:25N 44°24' E 008°52'0 0.0
2017-Sep-15 09:55N 44°24' E 008°52'0 0.0
2017-Sep-15 09:25N 44°24' E 008°52'0 0.0
2017-Sep-15 08:58N 44°24' E 008°52'0 0.0
2017-Sep-15 08:28N 44°24' E 008°52'0 0.0
2017-Sep-15 07:58N 44°24' E 008°52'0 0.0
2017-Sep-15 07:28N 44°24' E 008°52'0 0.0
2017-Sep-15 06:58N 44°24' E 008°52'0 0.0
2017-Sep-15 06:28N 44°24' E 008°52'0 0.0
2017-Sep-15 05:58N 44°24' E 008°52'0 0.0
2017-Sep-15 05:28N 44°24' E 008°52'0 0.0
2017-Sep-15 04:58N 44°24' E 008°52'0 0.0
2017-Sep-15 04:28N 44°24' E 008°52'0 0.0
2017-Sep-15 03:58N 44°24' E 008°52'0 0.0
2017-Sep-15 03:25N 44°24' E 008°52'0 0.0
2017-Sep-15 02:58N 44°24' E 008°52'0 0.0
2017-Sep-15 02:28N 44°24' E 008°52'0 0.0
2017-Sep-15 01:55N 44°24' E 008°52'0 0.0
2017-Sep-15 01:19N 44°24' E 008°52'0 0.0
2017-Sep-15 00:55N 44°24' E 008°52'0 0.0
2017-Sep-15 00:25N 44°24' E 008°52'0 0.0
2017-Sep-14 23:55N 44°24' E 008°52'0 0.0
2017-Sep-14 23:30N 44°24' E 008°52'0 0.0
2017-Sep-14 23:00N 44°24' E 008°52'0 0.0
2017-Sep-14 22:30N 44°24' E 008°52'0 0.0
2017-Sep-14 22:00N 44°24' E 008°52'0 0.0
2017-Sep-14 21:28N 44°24' E 008°52'0 0.0
2017-Sep-14 20:58N 44°24' E 008°52'0 0.0
2017-Sep-14 20:27N 44°24' E 008°52'0 0.0
2017-Sep-14 19:57N 44°24' E 008°52'0 0.0
2017-Sep-14 19:27N 44°24' E 008°52'0 0.0
2017-Sep-14 18:58N 44°24' E 008°52'0 0.0
2017-Sep-14 18:29N 44°24' E 008°52'0 0.0
2017-Sep-14 17:59N 44°24' E 008°52'0 0.0
2017-Sep-14 17:24N 44°24' E 008°52'0 0.0
2017-Sep-14 17:00N 44°24' E 008°52'0 0.0
2017-Sep-14 16:30N 44°24' E 008°52'0 0.0
2017-Sep-14 16:00N 44°24' E 008°52'0 0.0
2017-Sep-14 15:30N 44°24' E 008°52'0 0.0
2017-Sep-14 15:00N 44°24' E 008°52'0 0.0
2017-Sep-14 14:30N 44°24' E 008°52'0 0.0
2017-Sep-14 14:00N 44°24' E 008°52'0 0.0
2017-Sep-14 13:30N 44°24' E 008°52'0 0.0
2017-Sep-14 13:00N 44°24' E 008°52'0 0.0
2017-Sep-14 12:30N 44°24' E 008°52'0 0.0
2017-Sep-14 12:00N 44°24' E 008°52'0 0.0
2017-Sep-14 11:30N 44°24' E 008°52'0 0.0
2017-Sep-14 11:00N 44°24' E 008°52'0 0.0
2017-Sep-14 10:30N 44°24' E 008°52'0 0.0
2017-Sep-14 10:00N 44°24' E 008°52'0 0.0
2017-Sep-14 09:30N 44°24' E 008°52'0 0.0
2017-Sep-14 08:58N 44°24' E 008°52'0 0.0
2017-Sep-14 08:28N 44°24' E 008°52'0 0.0
2017-Sep-14 07:58N 44°24' E 008°52'0 0.0
2017-Sep-14 07:28N 44°24' E 008°52'0 0.0
2017-Sep-14 06:58N 44°24' E 008°52'0 0.0
2017-Sep-14 06:28N 44°24' E 008°52'0 0.0
2017-Sep-14 05:58N 44°24' E 008°52'0 0.0
2017-Sep-14 05:28N 44°24' E 008°52'0 0.0
2017-Sep-14 05:00N 44°24' E 008°52'0 0.0
2017-Sep-14 04:28N 44°24' E 008°52'0 0.0
2017-Sep-14 03:58N 44°24' E 008°52'0 0.0
2017-Sep-14 03:24N 44°24' E 008°52'0 0.0
2017-Sep-14 03:00N 44°24' E 008°52'0 0.0
2017-Sep-14 02:28N 44°24' E 008°52'0 0.0
2017-Sep-14 02:00N 44°24' E 008°52'0 0.0
2017-Sep-14 01:30N 44°24' E 008°52'0 0.0
2017-Sep-14 01:00N 44°24' E 008°52'0 0.0
2017-Sep-14 00:30N 44°24' E 008°52'0 0.0
2017-Sep-14 00:00N 44°24' E 008°52'0 0.0
2017-Sep-13 23:28N 44°24' E 008°52'0 0.0
2017-Sep-13 22:58N 44°24' E 008°52'0 0.0
2017-Sep-13 22:28N 44°24' E 008°52'0 0.0
2017-Sep-13 21:58N 44°24' E 008°52'0 0.0
2017-Sep-13 21:25N 44°24' E 008°52'0 0.0
2017-Sep-13 20:58N 44°24' E 008°52'0 0.0
2017-Sep-13 20:28N 44°24' E 008°52'0 0.0
2017-Sep-13 19:55N 44°24' E 008°52'0 0.0
2017-Sep-13 19:22N 44°24' E 008°52'0 0.0
2017-Sep-13 18:52N 44°24' E 008°52'0 0.0
2017-Sep-13 18:28N 44°24' E 008°52'0 0.0
2017-Sep-13 17:58N 44°24' E 008°52'0 0.0
2017-Sep-13 17:25N 44°24' E 008°52'0 0.0
2017-Sep-13 16:58N 44°24' E 008°52'0 0.0
2017-Sep-13 16:25N 44°24' E 008°52'0 0.0
2017-Sep-13 15:58N 44°24' E 008°52'0 0.0
2017-Sep-13 15:28N 44°24' E 008°52'0 0.0
2017-Sep-13 14:58N 44°24' E 008°52'0 0.0
2017-Sep-13 14:28N 44°24' E 008°52'0 0.0
2017-Sep-13 13:58N 44°24' E 008°52'0 0.0
2017-Sep-13 13:28N 44°24' E 008°52'0 0.0
2017-Sep-13 12:58N 44°24' E 008°52'0 0.0
2017-Sep-13 12:28N 44°24' E 008°52'0 0.0
2017-Sep-13 11:58N 44°24' E 008°52'0 0.0
2017-Sep-13 11:28N 44°24' E 008°52'0 0.0
2017-Sep-13 10:58N 44°24' E 008°52'0 0.0
2017-Sep-13 10:28N 44°24' E 008°52'0 0.0
2017-Sep-13 09:58N 44°24' E 008°52'0 0.0
2017-Sep-13 09:28N 44°24' E 008°52'0 0.0
2017-Sep-13 08:58N 44°24' E 008°52'0 0.0
2017-Sep-13 08:28N 44°24' E 008°52'0 0.0
2017-Sep-13 07:58N 44°24' E 008°52'0 0.0
2017-Sep-13 07:28N 44°24' E 008°52'0 0.0
2017-Sep-13 06:55N 44°24' E 008°52'0 0.0
2017-Sep-13 06:25N 44°24' E 008°52'0 0.0
2017-Sep-13 05:58N 44°24' E 008°52'0 0.0
2017-Sep-13 05:25N 44°24' E 008°52'0 0.0
2017-Sep-13 04:58N 44°24' E 008°52'0 0.0
2017-Sep-13 04:28N 44°24' E 008°52'0 0.0
2017-Sep-13 03:55N 44°24' E 008°52'0 0.0
2017-Sep-13 03:28N 44°24' E 008°52'0 0.0
2017-Sep-13 02:52N 44°24' E 008°52'0 0.0
2017-Sep-13 02:22N 44°24' E 008°52'0 0.0
2017-Sep-13 01:55N 44°24' E 008°52'0 0.0
2017-Sep-13 01:28N 44°24' E 008°52'0 0.0
2017-Sep-13 00:55N 44°24' E 008°52'0 0.0
2017-Sep-13 00:28N 44°24' E 008°52'0 0.0
2017-Sep-12 23:58N 44°24' E 008°52'0 0.0
2017-Sep-12 23:28N 44°24' E 008°52'0 0.0
2017-Sep-12 22:58N 44°24' E 008°52'0 0.0
2017-Sep-12 22:28N 44°24' E 008°52'0 0.0
2017-Sep-12 21:58N 44°24' E 008°52'0 0.0
2017-Sep-12 21:28N 44°24' E 008°52'0 0.0
2017-Sep-12 20:58N 44°24' E 008°52'0 0.0
2017-Sep-12 20:28N 44°24' E 008°52'0 0.0
2017-Sep-12 19:58N 44°24' E 008°52'0 0.0
2017-Sep-12 19:28N 44°24' E 008°52'0 0.0
2017-Sep-12 18:58N 44°24' E 008°52'0 0.0
2017-Sep-12 18:30N 44°24' E 008°52'0 0.0
2017-Sep-12 18:00N 44°24' E 008°52'0 0.0
2017-Sep-12 17:30N 44°24' E 008°52'0 0.0
2017-Sep-12 17:00N 44°24' E 008°52'0 0.0
2017-Sep-12 16:27N 44°24' E 008°52'0 0.0
2017-Sep-12 15:57N 44°24' E 008°52'0 0.0
2017-Sep-12 15:30N 44°24' E 008°52'0 0.0
2017-Sep-12 15:00N 44°24' E 008°52'0 0.0
2017-Sep-12 14:27N 44°24' E 008°52'0 0.0
2017-Sep-12 14:00N 44°24' E 008°52'0 0.0
2017-Sep-12 13:27N 44°24' E 008°52'0 0.0
2017-Sep-12 13:00N 44°24' E 008°52'0 0.0
2017-Sep-12 12:30N 44°24' E 008°52'0 0.0
2017-Sep-12 11:58N 44°24' E 008°52'0 0.0
2017-Sep-12 11:28N 44°24' E 008°52'0 0.0
2017-Sep-12 10:58N 44°24' E 008°52'0 0.0
2017-Sep-12 10:28N 44°24' E 008°52'0 0.1
2017-Sep-12 09:58N 44°24' E 008°52'0 0.0
2017-Sep-12 09:30N 44°24' E 008°52'2 3.4
2017-Sep-12 09:00N 44°24' E 008°54'4 7.4
2017-Sep-12 08:30N 44°21' E 008°58'510.5
2017-Sep-12 08:00N 44°17' E 009°02'510.0
2017-Sep-12 07:30N 44°13' E 009°07'511.0
2017-Sep-12 07:00N 44°09' E 009°12'611.0
2017-Sep-12 06:30N 44°05' E 009°18'510.8
2017-Sep-12 06:00N 44°01' E 009°23'510.7
2017-Sep-12 05:30N 43°57' E 009°28'510.6
2017-Sep-12 05:00N 43°53' E 009°32'510.4
2017-Sep-12 04:30N 43°49' E 009°37'5 9.9
2017-Sep-12 04:00N 43°46' E 009°42'5 9.3
2017-Sep-12 03:30N 43°42' E 009°46'4 8.9
2017-Sep-12 03:01N 43°39' E 009°51'4 8.6
2017-Sep-12 02:30N 43°36' E 009°55'4 8.5
2017-Sep-12 02:00N 43°33' E 009°59'  
Track history (hours):
 
Tides and Currents Weather Stations Pressure Air Temp Water Temp Dewpoint Dewpoint Depression Visibility Wind Speed Wind Dir Waves Ship Positions

Ursa Minor

Last reported at 2017-Sep-22 02:00 UTC. Time now 2017-Sep-22 03:01 UTC.
Position N 44°02' E 009°21'.

Length 205 m; draft 8.3 m.

Type: Ship (hazmat cat D). MMSI: 247082300.

Date/timePositionNaut miles runAvg speedWind from/ knotsBaromVisibWave heightAir tempDewpointWater temp
2017-Sep-22 02:00N 44°02' E 009°21'611.4
2017-Sep-22 01:30N 44°07' E 009°15'611.3
2017-Sep-22 00:59N 44°11' E 009°10'610.8
2017-Sep-22 00:26N 44°15' E 009°03'510.9
2017-Sep-21 23:59N 44°18' E 008°59'611.4
2017-Sep-21 23:30N 44°23' E 008°54'2 4.2
2017-Sep-21 22:59N 44°24' E 008°52'0 0.0
2017-Sep-21 22:29N 44°24' E 008°52'0 0.0
2017-Sep-21 21:59N 44°24' E 008°52'0 0.0
2017-Sep-21 21:29N 44°24' E 008°52'0 0.0
2017-Sep-21 20:59N 44°24' E 008°52'0 0.0
2017-Sep-21 20:29N 44°24' E 008°52'0 0.0
2017-Sep-21 19:59N 44°24' E 008°52'0 0.0
2017-Sep-21 19:29N 44°24' E 008°52'0 0.0
2017-Sep-21 18:59N 44°24' E 008°52'0 0.0
2017-Sep-21 18:29N 44°24' E 008°52'0 0.0
2017-Sep-21 17:59N 44°24' E 008°52'0 0.0
2017-Sep-21 17:26N 44°24' E 008°52'0 0.0
2017-Sep-21 16:56N 44°24' E 008°52'0 0.0
2017-Sep-21 16:26N 44°24' E 008°52'0 0.0
2017-Sep-21 15:56N 44°24' E 008°52'0 0.0
2017-Sep-21 15:26N 44°24' E 008°52'0 0.0
2017-Sep-21 14:56N 44°24' E 008°52'0 0.0
2017-Sep-21 14:26N 44°24' E 008°52'0 0.4
2017-Sep-21 13:58N 44°24' E 008°52'0 0.0
2017-Sep-21 13:30N 44°24' E 008°52'1 2.0
2017-Sep-21 13:00N 44°24' E 008°53'3 5.9
2017-Sep-21 12:30N 44°22' E 008°57'4 8.3
2017-Sep-21 12:00N 44°19' E 009°00'612.3
2017-Sep-21 11:30N 44°14' E 009°06'612.2
2017-Sep-21 11:00N 44°10' E 009°11'612.0
2017-Sep-21 10:30N 44°05' E 009°17'612.0
2017-Sep-21 10:00N 44°01' E 009°23'612.1
2017-Sep-21 09:30N 43°56' E 009°28'612.0
2017-Sep-21 09:00N 43°52' E 009°34'612.1
2017-Sep-21 08:30N 43°47' E 009°40'611.8
2017-Sep-21 08:00N 43°43' E 009°45'611.8
2017-Sep-21 07:30N 43°38' E 009°50'611.9
2017-Sep-21 07:00N 43°34' E 009°55'611.7
2017-Sep-21 06:29N 43°29' E 010°01'611.6
2017-Sep-21 06:00N 43°25' E 010°05'611.6
2017-Sep-21 05:30N 43°19' E 010°09'611.6
2017-Sep-21 05:00N 43°14' E 010°13'611.8
2017-Sep-21 04:30N 43°09' E 010°17'35710.7
2017-Sep-19 19:10N 38°39' E 015°24'211.4
2017-Sep-19 19:00N 38°38' E 015°26'711.2
2017-Sep-19 18:25N 38°32' E 015°30'511.3
2017-Sep-19 17:56N 38°28' E 015°34'511.1
2017-Sep-19 17:31N 38°24' E 015°38'511.0
2017-Sep-19 17:01N 38°19' E 015°42'4 8.3
2017-Sep-19 16:30N 38°15' E 015°40'511.0
2017-Sep-19 16:01N 38°10' E 015°37'510.6
2017-Sep-19 15:31N 38°05' E 015°36'510.6
2017-Sep-19 15:00N 37°60' E 015°37'611.3
2017-Sep-19 14:30N 37°55' E 015°41'611.9
2017-Sep-19 14:00N 37°53' E 015°48'612.4
2017-Sep-19 13:29N 37°53' E 015°56'6611.1
2017-Sep-19 07:34N 38°38' E 016°57'5910.9
2017-Sep-19 02:06N 39°36' E 017°14'211.6
2017-Sep-19 01:56N 39°38' E 017°14'611.4
2017-Sep-19 01:25N 39°44' E 017°13'711.2
2017-Sep-19 00:47N 39°51' E 017°12'1111.0
2017-Sep-18 23:46N 40°02' E 017°09'311.0
2017-Sep-18 23:30N 40°05' E 017°09'611.4
2017-Sep-18 23:00N 40°10' E 017°08'611.5
2017-Sep-18 22:31N 40°16' E 017°07'611.4
2017-Sep-18 22:01N 40°22' E 017°06'611.4
2017-Sep-18 21:30N 40°27' E 017°05'4 7.7
2017-Sep-18 21:01N 40°30' E 017°09'0 0.2
2017-Sep-18 20:27N 40°30' E 017°09'0 0.0
2017-Sep-18 19:57N 40°30' E 017°09'0 0.0
2017-Sep-18 19:31N 40°30' E 017°09'0 0.0
2017-Sep-18 19:01N 40°30' E 017°09'0 0.0
2017-Sep-18 18:30N 40°30' E 017°09'0 0.0
2017-Sep-18 18:00N 40°30' E 017°09'0 0.0
2017-Sep-18 17:30N 40°30' E 017°09'0 0.0
2017-Sep-18 17:00N 40°30' E 017°09'0 0.0
2017-Sep-18 16:30N 40°30' E 017°09'0 0.0
2017-Sep-18 16:00N 40°30' E 017°09'0 0.0
2017-Sep-18 15:30N 40°30' E 017°09'0 0.0
2017-Sep-18 15:00N 40°30' E 017°09'0 0.0
2017-Sep-18 14:30N 40°30' E 017°09'0 0.0
2017-Sep-18 14:00N 40°30' E 017°09'0 0.0
2017-Sep-18 13:30N 40°30' E 017°09'0 0.3
2017-Sep-18 13:00N 40°30' E 017°09'0 0.5
2017-Sep-18 12:28N 40°30' E 017°10'0 0.1
2017-Sep-18 12:00N 40°30' E 017°10'1 2.8
2017-Sep-18 11:30N 40°30' E 017°08'4 8.9
2017-Sep-18 11:01N 40°25' E 017°09'2 3.1
2017-Sep-18 10:30N 40°24' E 017°08'611.7
2017-Sep-18 10:00N 40°18' E 017°08'611.7
2017-Sep-18 09:31N 40°12' E 017°09'611.8
2017-Sep-18 09:00N 40°06' E 017°09'612.4
2017-Sep-18 08:30N 40°00' E 017°10'612.1
2017-Sep-18 08:00N 39°54' E 017°11'612.0
2017-Sep-18 07:29N 39°48' E 017°11'611.9
2017-Sep-18 07:00N 39°42' E 017°12'611.8
2017-Sep-18 06:29N 39°36' E 017°13'12110.1
2017-Sep-17 18:34N 37°53' E 015°52'411.6
2017-Sep-17 18:13N 37°53' E 015°47'312.0
2017-Sep-17 18:00N 37°54' E 015°44'612.2
2017-Sep-17 17:29N 37°58' E 015°38'611.8
2017-Sep-17 17:00N 38°04' E 015°36'611.5
2017-Sep-17 16:30N 38°09' E 015°36'510.5
2017-Sep-17 16:00N 38°15' E 015°37'5 9.8
2017-Sep-17 15:30N 38°18' E 015°41'611.5
2017-Sep-17 15:00N 38°23' E 015°37'612.1
2017-Sep-17 14:30N 38°28' E 015°33'612.1
2017-Sep-17 14:00N 38°33' E 015°29'612.3
2017-Sep-17 13:30N 38°39' E 015°24'712.7
2017-Sep-17 12:59N 38°44' E 015°20'612.5
2017-Sep-17 12:30N 38°49' E 015°16'1012.1
2017-Sep-17 11:41N 38°58' E 015°09'2312.3
2017-Sep-17 09:47N 39°18' E 014°55'512.0
2017-Sep-17 09:22N 39°23' E 014°52'11211.6
2017-Sep-16 23:47N 40°53' E 013°26'20911.3
2017-Sep-16 05:22N 43°20' E 010°08'411.3
2017-Sep-16 05:00N 43°24' E 010°05'611.7
2017-Sep-16 04:30N 43°29' E 010°01'611.8
2017-Sep-16 04:00N 43°34' E 009°56'611.8
2017-Sep-16 03:30N 43°38' E 009°51'611.8
2017-Sep-16 03:00N 43°43' E 009°46'611.8
2017-Sep-16 02:30N 43°48' E 009°41'611.7
2017-Sep-16 02:00N 43°52' E 009°35'611.7
2017-Sep-16 01:30N 43°56' E 009°30'611.3
2017-Sep-16 01:00N 44°00' E 009°24'611.3
2017-Sep-16 00:30N 44°04' E 009°19'611.2
2017-Sep-16 00:00N 44°08' E 009°13'611.2
2017-Sep-15 23:30N 44°12' E 009°08'611.2
2017-Sep-15 22:59N 44°17' E 009°02'511.2
2017-Sep-15 22:30N 44°21' E 008°57'5 9.9
2017-Sep-15 22:00N 44°24' E 008°52'0 0.2
2017-Sep-15 21:28N 44°24' E 008°52'0 0.0
2017-Sep-15 20:58N 44°24' E 008°52'0 0.0
2017-Sep-15 20:28N 44°24' E 008°52'0 0.0
2017-Sep-15 19:58N 44°24' E 008°52'0 0.0
2017-Sep-15 19:28N 44°24' E 008°52'0 0.0
2017-Sep-15 18:58N 44°24' E 008°52'0 0.0
2017-Sep-15 18:28N 44°24' E 008°52'0 0.0
2017-Sep-15 17:58N 44°24' E 008°52'0 0.0
2017-Sep-15 17:28N 44°24' E 008°52'0 0.0
2017-Sep-15 16:58N 44°24' E 008°52'0 0.0
2017-Sep-15 16:25N 44°24' E 008°52'0 0.0
2017-Sep-15 15:55N 44°24' E 008°52'0 0.0
2017-Sep-15 15:22N 44°24' E 008°52'0 0.0
2017-Sep-15 14:55N 44°24' E 008°52'0 0.0
2017-Sep-15 14:25N 44°24' E 008°52'0 0.0
2017-Sep-15 13:55N 44°24' E 008°52'0 0.0
2017-Sep-15 13:25N 44°24' E 008°52'0 0.0
2017-Sep-15 12:55N 44°24' E 008°52'0 0.0
2017-Sep-15 12:25N 44°24' E 008°52'0 0.0
2017-Sep-15 11:55N 44°24' E 008°52'0 0.0
2017-Sep-15 11:25N 44°24' E 008°52'0 0.0
2017-Sep-15 10:55N 44°24' E 008°52'0 0.0
2017-Sep-15 10:25N 44°24' E 008°52'0 0.0
2017-Sep-15 09:55N 44°24' E 008°52'0 0.0
2017-Sep-15 09:25N 44°24' E 008°52'0 0.0
2017-Sep-15 08:58N 44°24' E 008°52'0 0.0
2017-Sep-15 08:28N 44°24' E 008°52'0 0.0
2017-Sep-15 07:58N 44°24' E 008°52'0 0.0
2017-Sep-15 07:28N 44°24' E 008°52'0 0.0
2017-Sep-15 06:58N 44°24' E 008°52'0 0.0
2017-Sep-15 06:28N 44°24' E 008°52'0 0.0
2017-Sep-15 05:58N 44°24' E 008°52'0 0.0
2017-Sep-15 05:28N 44°24' E 008°52'0 0.0
2017-Sep-15 04:58N 44°24' E 008°52'0 0.0
2017-Sep-15 04:28N 44°24' E 008°52'0 0.0
2017-Sep-15 03:58N 44°24' E 008°52'0 0.0
2017-Sep-15 03:25N 44°24' E 008°52'0 0.0
2017-Sep-15 02:58N 44°24' E 008°52'0 0.0
2017-Sep-15 02:28N 44°24' E 008°52'0 0.0
2017-Sep-15 01:55N 44°24' E 008°52'0 0.0
2017-Sep-15 01:19N 44°24' E 008°52'0 0.0
2017-Sep-15 00:55N 44°24' E 008°52'0 0.0
2017-Sep-15 00:25N 44°24' E 008°52'0 0.0
2017-Sep-14 23:55N 44°24' E 008°52'0 0.0
2017-Sep-14 23:30N 44°24' E 008°52'0 0.0
2017-Sep-14 23:00N 44°24' E 008°52'0 0.0
2017-Sep-14 22:30N 44°24' E 008°52'0 0.0
2017-Sep-14 22:00N 44°24' E 008°52'0 0.0
2017-Sep-14 21:28N 44°24' E 008°52'0 0.0
2017-Sep-14 20:58N 44°24' E 008°52'0 0.0
2017-Sep-14 20:27N 44°24' E 008°52'0 0.0
2017-Sep-14 19:57N 44°24' E 008°52'0 0.0
2017-Sep-14 19:27N 44°24' E 008°52'0 0.0
2017-Sep-14 18:58N 44°24' E 008°52'0 0.0
2017-Sep-14 18:29N 44°24' E 008°52'0 0.0
2017-Sep-14 17:59N 44°24' E 008°52'0 0.0
2017-Sep-14 17:24N 44°24' E 008°52'0 0.0
2017-Sep-14 17:00N 44°24' E 008°52'0 0.0
2017-Sep-14 16:30N 44°24' E 008°52'0 0.0
2017-Sep-14 16:00N 44°24' E 008°52'0 0.0
2017-Sep-14 15:30N 44°24' E 008°52'0 0.0
2017-Sep-14 15:00N 44°24' E 008°52'0 0.0
2017-Sep-14 14:30N 44°24' E 008°52'0 0.0
2017-Sep-14 14:00N 44°24' E 008°52'0 0.0
2017-Sep-14 13:30N 44°24' E 008°52'0 0.0
2017-Sep-14 13:00N 44°24' E 008°52'0 0.0
2017-Sep-14 12:30N 44°24' E 008°52'0 0.0
2017-Sep-14 12:00N 44°24' E 008°52'0 0.0
2017-Sep-14 11:30N 44°24' E 008°52'0 0.0
2017-Sep-14 11:00N 44°24' E 008°52'0 0.0
2017-Sep-14 10:30N 44°24' E 008°52'0 0.0
2017-Sep-14 10:00N 44°24' E 008°52'0 0.0
2017-Sep-14 09:30N 44°24' E 008°52'0 0.0
2017-Sep-14 08:58N 44°24' E 008°52'0 0.0
2017-Sep-14 08:28N 44°24' E 008°52'0 0.0
2017-Sep-14 07:58N 44°24' E 008°52'0 0.0
2017-Sep-14 07:28N 44°24' E 008°52'0 0.0
2017-Sep-14 06:58N 44°24' E 008°52'0 0.0
2017-Sep-14 06:28N 44°24' E 008°52'0 0.0
2017-Sep-14 05:58N 44°24' E 008°52'0 0.0
2017-Sep-14 05:28N 44°24' E 008°52'0 0.0
2017-Sep-14 05:00N 44°24' E 008°52'0 0.0
2017-Sep-14 04:28N 44°24' E 008°52'0 0.0
2017-Sep-14 03:58N 44°24' E 008°52'0 0.0
2017-Sep-14 03:24N 44°24' E 008°52'0 0.0
2017-Sep-14 03:00N 44°24' E 008°52'0 0.0
2017-Sep-14 02:28N 44°24' E 008°52'0 0.0
2017-Sep-14 02:00N 44°24' E 008°52'0 0.0
2017-Sep-14 01:30N 44°24' E 008°52'0 0.0
2017-Sep-14 01:00N 44°24' E 008°52'0 0.0
2017-Sep-14 00:30N 44°24' E 008°52'0 0.0
2017-Sep-14 00:00N 44°24' E 008°52'0 0.0
2017-Sep-13 23:28N 44°24' E 008°52'0 0.0
2017-Sep-13 22:58N 44°24' E 008°52'0 0.0
2017-Sep-13 22:28N 44°24' E 008°52'0 0.0
2017-Sep-13 21:58N 44°24' E 008°52'0 0.0
2017-Sep-13 21:25N 44°24' E 008°52'0 0.0
2017-Sep-13 20:58N 44°24' E 008°52'0 0.0
2017-Sep-13 20:28N 44°24' E 008°52'0 0.0
2017-Sep-13 19:55N 44°24' E 008°52'0 0.0
2017-Sep-13 19:22N 44°24' E 008°52'0 0.0
2017-Sep-13 18:52N 44°24' E 008°52'0 0.0
2017-Sep-13 18:28N 44°24' E 008°52'0 0.0
2017-Sep-13 17:58N 44°24' E 008°52'0 0.0
2017-Sep-13 17:25N 44°24' E 008°52'0 0.0
2017-Sep-13 16:58N 44°24' E 008°52'0 0.0
2017-Sep-13 16:25N 44°24' E 008°52'0 0.0
2017-Sep-13 15:58N 44°24' E 008°52'0 0.0
2017-Sep-13 15:28N 44°24' E 008°52'0 0.0
2017-Sep-13 14:58N 44°24' E 008°52'0 0.0
2017-Sep-13 14:28N 44°24' E 008°52'0 0.0
2017-Sep-13 13:58N 44°24' E 008°52'0 0.0
2017-Sep-13 13:28N 44°24' E 008°52'0 0.0
2017-Sep-13 12:58N 44°24' E 008°52'0 0.0
2017-Sep-13 12:28N 44°24' E 008°52'0 0.0
2017-Sep-13 11:58N 44°24' E 008°52'0 0.0
2017-Sep-13 11:28N 44°24' E 008°52'0 0.0
2017-Sep-13 10:58N 44°24' E 008°52'0 0.0
2017-Sep-13 10:28N 44°24' E 008°52'0 0.0
2017-Sep-13 09:58N 44°24' E 008°52'0 0.0
2017-Sep-13 09:28N 44°24' E 008°52'0 0.0
2017-Sep-13 08:58N 44°24' E 008°52'0 0.0
2017-Sep-13 08:28N 44°24' E 008°52'0 0.0
2017-Sep-13 07:58N 44°24' E 008°52'0 0.0
2017-Sep-13 07:28N 44°24' E 008°52'0 0.0
2017-Sep-13 06:55N 44°24' E 008°52'0 0.0
2017-Sep-13 06:25N 44°24' E 008°52'0 0.0
2017-Sep-13 05:58N 44°24' E 008°52'0 0.0
2017-Sep-13 05:25N 44°24' E 008°52'0 0.0
2017-Sep-13 04:58N 44°24' E 008°52'0 0.0
2017-Sep-13 04:28N 44°24' E 008°52'0 0.0
2017-Sep-13 03:55N 44°24' E 008°52'0 0.0
2017-Sep-13 03:28N 44°24' E 008°52'0 0.0
2017-Sep-13 02:52N 44°24' E 008°52'0 0.0
2017-Sep-13 02:22N 44°24' E 008°52'0 0.0
2017-Sep-13 01:55N 44°24' E 008°52'0 0.0
2017-Sep-13 01:28N 44°24' E 008°52'0 0.0
2017-Sep-13 00:55N 44°24' E 008°52'0 0.0
2017-Sep-13 00:28N 44°24' E 008°52'0 0.0
2017-Sep-12 23:58N 44°24' E 008°52'0 0.0
2017-Sep-12 23:28N 44°24' E 008°52'0 0.0
2017-Sep-12 22:58N 44°24' E 008°52'0 0.0
2017-Sep-12 22:28N 44°24' E 008°52'0 0.0
2017-Sep-12 21:58N 44°24' E 008°52'0 0.0
2017-Sep-12 21:28N 44°24' E 008°52'0 0.0
2017-Sep-12 20:58N 44°24' E 008°52'0 0.0
2017-Sep-12 20:28N 44°24' E 008°52'0 0.0
2017-Sep-12 19:58N 44°24' E 008°52'0 0.0
2017-Sep-12 19:28N 44°24' E 008°52'0 0.0
2017-Sep-12 18:58N 44°24' E 008°52'0 0.0
2017-Sep-12 18:30N 44°24' E 008°52'0 0.0
2017-Sep-12 18:00N 44°24' E 008°52'0 0.0
2017-Sep-12 17:30N 44°24' E 008°52'0 0.0
2017-Sep-12 17:00N 44°24' E 008°52'0 0.0
2017-Sep-12 16:27N 44°24' E 008°52'0 0.0
2017-Sep-12 15:57N 44°24' E 008°52'0 0.0
2017-Sep-12 15:30N 44°24' E 008°52'0 0.0
2017-Sep-12 15:00N 44°24' E 008°52'0 0.0
2017-Sep-12 14:27N 44°24' E 008°52'0 0.0
2017-Sep-12 14:00N 44°24' E 008°52'0 0.0
2017-Sep-12 13:27N 44°24' E 008°52'0 0.0
2017-Sep-12 13:00N 44°24' E 008°52'0 0.0
2017-Sep-12 12:30N 44°24' E 008°52'0 0.0
2017-Sep-12 11:58N 44°24' E 008°52'0 0.0
2017-Sep-12 11:28N 44°24' E 008°52'0 0.0
2017-Sep-12 10:58N 44°24' E 008°52'0 0.0
2017-Sep-12 10:28N 44°24' E 008°52'0 0.1
2017-Sep-12 09:58N 44°24' E 008°52'0 0.0
2017-Sep-12 09:30N 44°24' E 008°52'2 3.4
2017-Sep-12 09:00N 44°24' E 008°54'4 7.4
2017-Sep-12 08:30N 44°21' E 008°58'510.5
2017-Sep-12 08:00N 44°17' E 009°02'510.0
2017-Sep-12 07:30N 44°13' E 009°07'511.0
2017-Sep-12 07:00N 44°09' E 009°12'611.0
2017-Sep-12 06:30N 44°05' E 009°18'510.8
2017-Sep-12 06:00N 44°01' E 009°23'510.7
2017-Sep-12 05:30N 43°57' E 009°28'510.6
2017-Sep-12 05:00N 43°53' E 009°32'510.4
2017-Sep-12 04:30N 43°49' E 009°37'5 9.9
2017-Sep-12 04:00N 43°46' E 009°42'5 9.3
2017-Sep-12 03:30N 43°42' E 009°46'4 8.9
2017-Sep-12 03:01N 43°39' E 009°51'4 8.6
2017-Sep-12 02:30N 43°36' E 009°55'4 8.5
2017-Sep-12 02:00N 43°33' E 009°59'  

Dump ship's entire track history